Time;durP1;ratioP1;P1;durP2;ratioP2;P2;SDS_P1;SDS_P2;PMS_P1;PMS_P2;Temp;Humidity;BMP_temperature;BMP_pressure;BME280_temperature;BME280_humidity;BME280_pressure;Samples;Min_cycle;Max_cycle;Signal;HPM_P1;HPM_P2
2021/01/23 00:02:06;;;;;;;1.85;0.98;;;3.60;99.90;;;;;;5010782;28;20841;-76
2021/01/23 00:04:32;;;;;;;1.08;0.68;;;3.60;99.90;;;;;;5011107;28;20114;-76
2021/01/23 00:06:58;;;;;;;1.27;1.02;;;3.60;99.90;;;;;;5005685;28;20026;-77
2021/01/23 00:09:24;;;;;;;1.90;0.90;;;3.60;99.90;;;;;;5013040;28;20029;-76
2021/01/23 00:11:50;;;;;;;1.58;1.10;;;3.60;99.90;;;;;;4999810;28;20052;-76
2021/01/23 00:14:16;;;;;;;1.20;1.02;;;3.50;99.90;;;;;;5028008;28;20385;-77
2021/01/23 00:16:42;;;;;;;0.98;0.80;;;3.60;99.90;;;;;;4999271;28;20034;-77
2021/01/23 00:19:08;;;;;;;1.35;0.90;;;3.60;99.90;;;;;;5034200;28;20057;-76
2021/01/23 00:21:34;;;;;;;1.67;0.90;;;3.60;99.90;;;;;;5016293;28;20068;-76
2021/01/23 00:24:00;;;;;;;1.42;0.98;;;3.60;99.90;;;;;;5016463;28;20045;-78
2021/01/23 00:26:26;;;;;;;0.80;0.80;;;3.60;99.90;;;;;;5015631;28;20034;-77
2021/01/23 00:28:52;;;;;;;1.65;1.10;;;3.50;99.90;;;;;;5027120;28;20029;-77
2021/01/23 00:31:17;;;;;;;1.67;1.10;;;3.50;99.90;;;;;;5032689;28;20045;-76
2021/01/23 00:33:43;;;;;;;2.60;1.33;;;3.50;99.90;;;;;;5032613;28;20494;-75
2021/01/23 00:36:09;;;;;;;1.80;1.25;;;3.50;99.90;;;;;;5004596;28;20557;-78
2021/01/23 00:38:35;;;;;;;1.00;0.88;;;3.50;99.90;;;;;;5015915;28;20026;-76
2021/01/23 00:41:00;;;;;;;0.82;0.80;;;3.50;99.90;;;;;;4999601;28;20405;-78
2021/01/23 00:43:26;;;;;;;1.25;0.90;;;3.50;99.90;;;;;;5016260;28;20410;-76
2021/01/23 00:45:52;;;;;;;1.00;0.90;;;3.50;99.90;;;;;;5033899;28;20025;-77
2021/01/23 00:48:17;;;;;;;1.20;0.88;;;3.50;99.90;;;;;;5015071;28;20486;-78
2021/01/23 00:50:44;;;;;;;1.38;1.00;;;3.50;99.90;;;;;;4983899;28;20213;-77
2021/01/23 00:53:10;;;;;;;1.55;0.95;;;3.50;99.90;;;;;;4999934;28;20037;-77
2021/01/23 00:55:36;;;;;;;2.17;1.52;;;3.50;99.90;;;;;;5015617;28;20033;-76
2021/01/23 00:58:03;;;;;;;1.90;1.17;;;3.50;99.90;;;;;;4999400;28;20033;-77
2021/01/23 01:00:29;;;;;;;1.45;0.95;;;3.60;99.90;;;;;;4983591;28;20034;-77
2021/01/23 01:02:55;;;;;;;1.45;1.30;;;3.60;99.90;;;;;;5015784;28;20083;-78
2021/01/23 01:05:33;;;;;;;1.70;1.25;;;3.60;99.90;;;;;;5000962;28;20041;-78
2021/01/23 01:07:59;;;;;;;2.25;1.65;;;3.60;99.90;;;;;;5014252;28;20419;-77
2021/01/23 01:10:24;;;;;;;1.25;1.15;;;3.60;99.90;;;;;;5032954;28;20116;-77
2021/01/23 01:12:50;;;;;;;3.20;1.60;;;3.60;99.90;;;;;;5033509;28;20065;-77
2021/01/23 01:15:16;;;;;;;2.85;2.13;;;3.60;99.90;;;;;;5031969;28;20248;-78
2021/01/23 01:17:42;;;;;;;2.45;1.73;;;3.60;99.90;;;;;;5033228;28;20033;-77
2021/01/23 01:20:08;;;;;;;2.28;1.70;;;3.50;99.90;;;;;;5015689;28;20057;-76
2021/01/23 01:22:34;;;;;;;3.65;2.10;;;3.50;99.90;;;;;;5031779;28;20057;-77
2021/01/23 01:24:59;;;;;;;2.63;1.90;;;3.50;99.90;;;;;;5031953;28;20429;-77
2021/01/23 01:27:25;;;;;;;4.30;2.53;;;3.50;99.90;;;;;;5031553;28;20041;-76
2021/01/23 01:29:51;;;;;;;2.78;2.10;;;3.50;99.90;;;;;;5015400;28;20033;-77
2021/01/23 01:32:16;;;;;;;3.65;2.55;;;3.50;99.90;;;;;;4999172;28;20041;-78
2021/01/23 01:34:43;;;;;;;4.10;2.53;;;3.50;99.90;;;;;;5032992;28;20033;-77
2021/01/23 01:37:09;;;;;;;4.20;2.50;;;3.50;99.90;;;;;;5015117;28;20033;-76
2021/01/23 01:39:34;;;;;;;4.13;2.75;;;3.50;99.90;;;;;;5032952;28;20030;-77
2021/01/23 01:42:05;;;;;;;3.25;2.83;;;3.50;99.90;;;;;;5032714;28;20045;-78
2021/01/23 01:44:31;;;;;;;4.10;3.17;;;3.50;99.90;;;;;;5032669;28;20033;-76
2021/01/23 01:47:00;;;;;;;4.32;2.80;;;3.50;99.90;;;;;;5013818;28;20260;-77
2021/01/23 01:49:30;;;;;;;4.82;3.10;;;3.50;99.90;;;;;;5014886;28;20084;-77
2021/01/23 01:51:56;;;;;;;5.30;3.60;;;3.50;99.90;;;;;;5014737;28;20561;-78
2021/01/23 01:54:26;;;;;;;6.75;3.17;;;3.40;99.90;;;;;;5015079;28;20037;-78
2021/01/23 01:56:54;;;;;;;5.15;3.30;;;3.30;99.90;;;;;;5032166;28;20079;-78
2021/01/23 01:59:20;;;;;;;4.95;3.10;;;3.30;99.90;;;;;;5010693;28;20041;-76
2021/01/23 02:01:46;;;;;;;4.60;2.55;;;3.30;99.90;;;;;;4971539;28;20038;-79
2021/01/23 02:04:34;;;;;;;3.50;2.60;;;3.30;99.90;;;;;;5033306;28;20035;-78
2021/01/23 02:07:28;;;;;;;4.63;2.55;;;3.20;99.90;;;;;;5015265;28;20067;-78
2021/01/23 02:10:10;;;;;;;2.55;2.17;;;3.20;99.90;;;;;;5052177;28;20028;-77
2021/01/23 02:12:52;;;;;;;3.65;2.25;;;3.10;99.90;;;;;;5033184;28;20040;-78
2021/01/23 02:15:23;;;;;;;2.88;2.03;;;3.10;99.90;;;;;;5017460;28;20033;-79
2021/01/23 02:17:56;;;;;;;3.60;2.20;;;3.10;99.90;;;;;;5033158;28;20033;-79
2021/01/23 02:20:47;;;;;;;2.92;1.75;;;3.00;99.90;;;;;;5051963;28;20028;-78
2021/01/23 02:23:29;;;;;;;3.33;2.20;;;3.00;99.90;;;;;;5015073;28;20033;-79
2021/01/23 02:26:03;;;;;;;3.25;2.35;;;2.90;99.90;;;;;;5031799;28;20021;-77
2021/01/23 02:29:05;;;;;;;3.03;1.90;;;2.90;99.90;;;;;;5021078;28;20025;-78
2021/01/23 02:31:53;;;;;;;2.08;1.85;;;2.80;99.90;;;;;;5033287;28;20065;-79
2021/01/23 02:34:22;;;;;;;2.35;1.63;;;2.80;99.90;;;;;;5016549;28;20034;-79
2021/01/23 02:36:49;;;;;;;1.73;1.38;;;2.70;99.90;;;;;;5016319;28;20059;-79
2021/01/23 02:39:18;;;;;;;2.08;1.50;;;2.60;99.90;;;;;;5033154;28;20029;-79
2021/01/23 02:41:44;;;;;;;3.10;1.80;;;2.60;99.90;;;;;;5033318;28;20040;-78
2021/01/23 02:44:10;;;;;;;1.90;1.33;;;2.60;99.90;;;;;;5031689;28;20478;-77
2021/01/23 02:46:37;;;;;;;2.53;1.67;;;2.70;99.90;;;;;;5027090;28;20509;-78
2021/01/23 02:49:03;;;;;;;1.88;1.45;;;2.70;99.90;;;;;;5016532;28;20105;-78
2021/01/23 02:51:38;;;;;;;3.00;1.45;;;2.60;99.90;;;;;;5016432;28;20044;-80
2021/01/23 02:54:31;;;;;;;1.80;1.40;;;2.50;99.90;;;;;;5032808;28;20421;-77
2021/01/23 02:57:00;;;;;;;2.30;1.38;;;2.60;99.90;;;;;;5029444;28;20033;-78
2021/01/23 02:59:26;;;;;;;1.63;1.15;;;2.60;99.90;;;;;;5032112;28;20533;-78
2021/01/23 03:01:53;;;;;;;2.97;1.30;;;2.50;99.90;;;;;;5031639;28;20118;-77
2021/01/23 03:04:20;;;;;;;1.88;1.17;;;2.50;99.90;;;;;;5032307;28;20072;-79
2021/01/23 03:06:47;;;;;;;1.83;1.50;;;2.40;99.90;;;;;;5013471;28;20033;-77
2021/01/23 03:09:20;;;;;;;1.15;1.05;;;2.40;99.90;;;;;;5030114;28;20553;-78
2021/01/23 03:11:46;;;;;;;1.42;1.13;;;2.30;99.90;;;;;;5012826;28;20042;-78
2021/01/23 03:14:12;;;;;;;2.13;1.20;;;2.40;99.90;;;;;;5029689;28;20104;-78
2021/01/23 03:16:44;;;;;;;1.38;1.10;;;2.40;99.90;;;;;;5012042;28;20153;-78
2021/01/23 03:19:10;;;;;;;1.90;1.40;;;2.30;99.90;;;;;;5029645;28;20070;-78
2021/01/23 03:21:35;;;;;;;2.08;1.42;;;2.30;99.90;;;;;;5012991;28;20038;-79
2021/01/23 03:24:01;;;;;;;2.58;1.38;;;2.30;99.90;;;;;;5013220;28;20029;-79
2021/01/23 03:26:27;;;;;;;2.30;1.30;;;2.20;99.90;;;;;;5011552;28;20667;-79
2021/01/23 03:28:52;;;;;;;1.98;1.10;;;2.20;99.90;;;;;;5018190;28;20037;-79
2021/01/23 03:31:18;;;;;;;1.45;1.17;;;2.20;99.90;;;;;;5013066;28;20402;-79
2021/01/23 03:33:44;;;;;;;1.23;0.90;;;2.20;99.90;;;;;;4980437;28;20057;-79
2021/01/23 03:36:09;;;;;;;1.58;1.17;;;2.20;99.90;;;;;;4995752;28;20478;-79
2021/01/23 03:38:35;;;;;;;1.50;1.10;;;2.20;99.90;;;;;;4996171;28;20038;-79
2021/01/23 03:41:01;;;;;;;1.83;1.20;;;2.10;99.90;;;;;;4980360;28;20046;-79
2021/01/23 03:43:27;;;;;;;2.17;1.35;;;2.10;99.90;;;;;;4996723;28;20064;-79
2021/01/23 03:45:53;;;;;;;2.33;1.23;;;2.10;99.90;;;;;;5017872;28;20037;-78
2021/01/23 03:48:18;;;;;;;1.20;1.05;;;2.00;99.90;;;;;;5035946;28;20041;-78
2021/01/23 03:50:44;;;;;;;1.67;1.48;;;2.00;99.90;;;;;;5037141;28;20021;-78
2021/01/23 03:53:10;;;;;;;2.45;1.17;;;2.00;99.90;;;;;;5002170;28;20497;-76
2021/01/23 03:55:36;;;;;;;2.33;1.50;;;2.00;99.90;;;;;;5038097;28;20049;-77
2021/01/23 03:58:03;;;;;;;1.83;1.27;;;1.90;99.90;;;;;;5018452;28;20045;-77
2021/01/23 04:00:28;;;;;;;1.70;1.10;;;1.80;99.90;;;;;;5019901;28;20116;-77
2021/01/23 04:02:54;;;;;;;2.00;1.27;;;1.80;99.90;;;;;;5038203;28;20053;-77
2021/01/23 04:05:20;;;;;;;1.88;1.33;;;1.70;99.90;;;;;;5031881;28;20043;-77
2021/01/23 04:07:45;;;;;;;1.80;1.30;;;1.70;99.90;;;;;;5034775;28;20033;-79
2021/01/23 04:10:12;;;;;;;1.33;1.20;;;1.60;99.90;;;;;;5037238;28;20481;-78
2021/01/23 04:12:38;;;;;;;1.92;0.80;;;1.60;99.90;;;;;;5015266;28;20037;-79
2021/01/23 04:15:04;;;;;;;1.13;0.95;;;1.60;99.90;;;;;;5000028;28;20045;-78
2021/01/23 04:17:30;;;;;;;1.67;1.20;;;1.50;99.90;;;;;;4999547;28;20034;-78
2021/01/23 04:19:56;;;;;;;1.15;0.93;;;1.50;99.90;;;;;;5035489;28;20033;-77
2021/01/23 04:22:21;;;;;;;1.58;0.90;;;1.50;99.90;;;;;;5035537;28;20037;-77
2021/01/23 04:24:47;;;;;;;1.42;1.00;;;1.40;99.90;;;;;;5016801;28;20045;-78
2021/01/23 04:27:13;;;;;;;1.10;0.77;;;1.40;99.90;;;;;;5016073;28;20037;-76
2021/01/23 04:29:39;;;;;;;0.63;0.60;;;1.40;99.90;;;;;;5033564;28;20064;-76
2021/01/23 04:32:05;;;;;;;0.43;0.43;;;1.40;99.90;;;;;;5033314;28;20033;-76
2021/01/23 04:34:30;;;;;;;0.52;0.40;;;1.40;99.90;;;;;;5029927;28;20029;-77
2021/01/23 04:36:56;;;;;;;0.52;0.52;;;1.40;99.90;;;;;;5010668;28;20275;-76
2021/01/23 04:39:22;;;;;;;0.30;0.30;;;1.40;99.90;;;;;;4995828;28;20379;-77
2021/01/23 04:41:48;;;;;;;1.63;0.50;;;1.40;99.90;;;;;;5012027;28;20077;-75
2021/01/23 04:44:13;;;;;;;1.50;0.40;;;1.40;99.90;;;;;;5017932;28;20033;-74
2021/01/23 04:46:39;;;;;;;0.40;0.40;;;1.40;99.90;;;;;;5031623;28;20490;-75
2021/01/23 04:49:05;;;;;;;0.63;0.50;;;1.40;99.90;;;;;;5014885;28;20132;-75
2021/01/23 04:51:31;;;;;;;0.63;0.30;;;1.40;99.90;;;;;;5015385;28;20058;-75
2021/01/23 04:53:56;;;;;;;12.95;0.47;;;1.40;99.90;;;;;;5032673;28;20037;-75
2021/01/23 04:56:26;;;;;;;0.40;0.30;;;1.40;99.90;;;;;;5030913;28;20073;-75
2021/01/23 04:58:52;;;;;;;0.20;0.20;;;1.30;99.90;;;;;;5015221;28;20513;-75
2021/01/23 05:01:17;;;;;;;1.33;0.38;;;1.30;99.90;;;;;;5022137;28;20038;-75
2021/01/23 05:03:59;;;;;;;0.30;0.30;;;1.30;99.90;;;;;;5031391;28;20041;-77
2021/01/23 05:06:26;;;;;;;0.20;0.20;;;1.30;99.90;;;;;;5031143;28;20033;-75
2021/01/23 05:08:52;;;;;;;2.63;0.20;;;1.30;99.90;;;;;;5031193;28;20429;-75
2021/01/23 05:11:19;;;;;;;3.55;0.35;;;1.30;99.90;;;;;;5030257;28;20040;-75
2021/01/23 05:14:08;;;;;;;0.10;0.10;;;1.30;99.90;;;;;;5032830;28;20026;-76
2021/01/23 05:16:34;;;;;;;2.15;0.20;;;1.30;99.90;;;;;;5031201;28;20037;-77
2021/01/23 05:19:02;;;;;;;5.00;0.30;;;1.20;99.90;;;;;;5031020;28;20079;-77
2021/01/23 05:21:29;;;;;;;0.10;0.10;;;1.20;99.90;;;;;;5031291;28;20087;-76
2021/01/23 05:24:13;;;;;;;0.05;0.05;;;1.20;99.90;;;;;;5032109;28;20120;-74
2021/01/23 05:26:40;;;;;;;0.10;0.10;;;1.20;99.90;;;;;;5029481;28;20037;-74
2021/01/23 05:29:08;;;;;;;1.83;0.10;;;1.20;99.90;;;;;;5017769;28;20039;-76
2021/01/23 05:31:33;;;;;;;0.10;0.10;;;1.20;99.90;;;;;;5015845;28;20477;-76
2021/01/23 05:33:59;;;;;;;1.55;0.10;;;1.20;99.90;;;;;;5032957;28;20128;-75
2021/01/23 05:36:25;;;;;;;0.00;0.00;;;1.20;99.90;;;;;;5026838;28;20113;-75
2021/01/23 05:38:51;;;;;;;0.10;0.10;;;1.20;99.90;;;;;;5031250;28;20018;-75
2021/01/23 05:41:17;;;;;;;0.30;0.00;;;1.20;99.90;;;;;;5031770;28;20036;-76
2021/01/23 05:43:48;;;;;;;0.90;0.10;;;1.20;99.90;;;;;;5031557;28;20021;-75
2021/01/23 05:46:27;;;;;;;0.00;0.00;;;1.10;99.90;;;;;;5030576;28;20096;-74
2021/01/23 05:48:53;;;;;;;0.10;0.10;;;1.20;99.90;;;;;;5011919;28;20474;-75
2021/01/23 05:51:21;;;;;;;1.17;0.10;;;1.20;99.90;;;;;;4994453;28;20026;-75
2021/01/23 05:53:47;;;;;;;0.13;0.10;;;1.20;99.90;;;;;;5011740;28;20056;-74
2021/01/23 05:56:13;;;;;;;0.17;0.10;;;1.20;99.90;;;;;;5010747;28;20120;-74
2021/01/23 05:58:43;;;;;;;0.80;0.00;;;1.20;99.90;;;;;;5011512;28;20398;-74
2021/01/23 06:01:17;;;;;;;0.10;0.10;;;1.10;99.90;;;;;;4994573;28;20049;-74
2021/01/23 06:03:46;;;;;;;3.60;0.28;;;1.20;99.90;;;;;;5011903;28;20026;-74
2021/01/23 06:06:12;;;;;;;0.00;0.00;;;1.10;99.90;;;;;;5010422;28;20772;-73
2021/01/23 06:08:56;;;;;;;0.03;0.00;;;1.10;99.90;;;;;;5010233;28;20026;-73
2021/01/23 06:11:21;;;;;;;0.10;0.10;;;1.10;99.90;;;;;;5010926;28;20038;-74
2021/01/23 06:13:51;;;;;;;0.10;0.10;;;1.20;99.90;;;;;;5011666;28;20107;-74
2021/01/23 06:16:32;;;;;;;0.10;0.10;;;1.20;99.90;;;;;;5010296;28;20494;-74
2021/01/23 06:19:27;;;;;;;0.10;0.10;;;1.20;99.90;;;;;;4987112;28;20079;-75
2021/01/23 06:21:53;;;;;;;0.30;0.05;;;1.20;99.90;;;;;;5030872;28;20089;-73
2021/01/23 06:24:44;;;;;;;0.00;0.00;;;1.10;99.90;;;;;;5013226;28;20053;-74
2021/01/23 06:27:10;;;;;;;1.30;0.32;;;1.10;99.90;;;;;;5026558;28;20475;-74
2021/01/23 06:29:44;;;;;;;3.55;0.10;;;1.10;99.90;;;;;;5013714;28;20029;-74
2021/01/23 06:32:19;;;;;;;0.20;0.20;;;1.10;99.90;;;;;;5030971;28;20044;-74
2021/01/23 06:34:48;;;;;;;0.10;0.10;;;1.10;99.90;;;;;;5024532;28;20018;-74
2021/01/23 06:37:24;;;;;;;0.10;0.10;;;1.10;99.90;;;;;;5029629;28;20030;-74
2021/01/23 06:39:56;;;;;;;1.25;0.20;;;1.10;99.90;;;;;;5012865;28;20033;-74
2021/01/23 06:42:25;;;;;;;0.03;0.03;;;1.10;99.90;;;;;;5030794;28;20021;-74
2021/01/23 06:44:51;;;;;;;4.03;0.20;;;1.10;99.90;;;;;;5030779;28;20104;-74
2021/01/23 06:47:16;;;;;;;1.02;0.20;;;1.10;99.90;;;;;;5029500;28;20116;-75
2021/01/23 06:49:43;;;;;;;0.15;0.15;;;1.10;99.90;;;;;;5038852;28;20489;-75
2021/01/23 06:52:09;;;;;;;0.13;0.10;;;1.10;99.90;;;;;;5049963;28;20475;-75
2021/01/23 06:54:36;;;;;;;0.10;0.10;;;1.10;99.90;;;;;;5016073;28;20064;-75
2021/01/23 06:57:04;;;;;;;0.30;0.28;;;1.10;99.90;;;;;;5030727;28;20389;-76
2021/01/23 06:59:36;;;;;;;0.30;0.20;;;1.10;99.90;;;;;;5049950;28;20395;-76
2021/01/23 07:02:05;;;;;;;0.10;0.10;;;1.10;99.90;;;;;;5041789;28;20055;-75
2021/01/23 07:04:33;;;;;;;4.82;0.32;;;1.10;99.90;;;;;;5021363;28;20029;-75
2021/01/23 07:07:00;;;;;;;1.95;0.20;;;1.10;99.90;;;;;;5001987;28;20502;-75
2021/01/23 07:09:51;;;;;;;0.10;0.10;;;1.10;99.90;;;;;;5018464;28;20030;-76
2021/01/23 07:12:41;;;;;;;0.40;0.20;;;1.10;99.90;;;;;;5003523;28;20086;-76
2021/01/23 07:15:12;;;;;;;3.25;0.20;;;1.10;99.90;;;;;;5018761;28;20037;-75
2021/01/23 07:17:43;;;;;;;0.20;0.20;;;1.10;99.90;;;;;;5020708;28;20064;-75
2021/01/23 07:20:11;;;;;;;0.50;0.20;;;1.10;99.90;;;;;;5024784;28;20076;-76
2021/01/23 07:22:38;;;;;;;20.92;1.35;;;1.10;99.90;;;;;;5002901;28;20477;-76
2021/01/23 07:25:06;;;;;;;2.45;0.30;;;1.10;99.90;;;;;;4993342;28;20045;-76
2021/01/23 07:27:33;;;;;;;12.88;0.60;;;1.10;99.90;;;;;;5008730;28;20555;-76
2021/01/23 07:29:59;;;;;;;6.07;0.47;;;1.10;99.90;;;;;;5024622;28;20121;-76
2021/01/23 07:32:39;;;;;;;2.45;0.28;;;1.10;99.90;;;;;;5031505;28;20115;-75
2021/01/23 07:35:05;;;;;;;0.10;0.10;;;1.10;99.90;;;;;;5031000;28;20037;-76
2021/01/23 07:37:42;;;;;;;0.17;0.17;;;1.10;99.90;;;;;;5037211;28;20064;-75
2021/01/23 07:40:09;;;;;;;7.60;0.50;;;1.10;99.90;;;;;;5034053;28;20064;-76
2021/01/23 07:42:36;;;;;;;0.30;0.20;;;1.10;99.90;;;;;;5036496;28;20113;-75
2021/01/23 07:45:04;;;;;;;0.10;0.10;;;1.20;99.90;;;;;;5038178;28;20052;-76
2021/01/23 07:47:30;;;;;;;0.20;0.20;;;1.20;99.90;;;;;;5013129;28;20030;-76
2021/01/23 07:50:11;;;;;;;0.00;0.00;;;1.20;99.90;;;;;;5032854;28;20503;-76
2021/01/23 07:52:39;;;;;;;0.20;0.20;;;1.20;99.90;;;;;;5034213;28;20037;-76
2021/01/23 07:55:07;;;;;;;0.52;0.10;;;1.20;99.90;;;;;;5036778;28;20104;-76
2021/01/23 07:57:32;;;;;;;3.75;0.38;;;1.20;99.90;;;;;;5037921;28;20032;-76
2021/01/23 07:59:58;;;;;;;2.42;0.22;;;1.30;99.90;;;;;;5032627;28;20025;-76
2021/01/23 08:02:25;;;;;;;0.20;0.20;;;1.30;99.90;;;;;;5043160;28;20489;-76
2021/01/23 08:04:53;;;;;;;2.80;0.20;;;1.30;99.90;;;;;;5034702;28;20485;-76
2021/01/23 08:07:29;;;;;;;0.52;0.25;;;1.30;99.90;;;;;;5033706;28;20161;-76
2021/01/23 08:10:16;;;;;;;0.52;0.20;;;1.30;99.90;;;;;;5035284;28;20445;-76
2021/01/23 08:12:58;;;;;;;5.95;0.40;;;1.30;99.90;;;;;;5037169;28;20026;-75
2021/01/23 08:15:33;;;;;;;4.38;0.20;;;1.30;99.90;;;;;;5031664;28;20029;-76
2021/01/23 08:18:00;;;;;;;19.03;0.87;;;1.30;99.90;;;;;;5037476;28;20033;-76
2021/01/23 08:20:37;;;;;;;8.40;0.52;;;1.30;99.90;;;;;;5034119;28;20025;-75
2021/01/23 08:23:10;;;;;;;2.35;0.30;;;1.30;99.90;;;;;;5022369;28;20120;-76
2021/01/23 08:25:54;;;;;;;0.20;0.15;;;1.30;99.90;;;;;;5041281;28;20051;-76
2021/01/23 08:28:32;;;;;;;0.65;0.30;;;1.40;99.90;;;;;;5005649;28;20803;-76
2021/01/23 08:31:11;;;;;;;3.20;0.25;;;1.40;99.90;;;;;;5014734;28;20049;-77
2021/01/23 08:33:37;;;;;;;3.42;0.28;;;1.40;99.90;;;;;;5024602;28;20481;-77
2021/01/23 08:36:03;;;;;;;1.05;0.20;;;1.40;99.90;;;;;;5036092;28;20109;-77
2021/01/23 08:38:29;;;;;;;0.63;0.20;;;1.50;99.90;;;;;;5035409;28;20232;-76
2021/01/23 08:40:55;;;;;;;7.05;0.40;;;1.50;99.90;;;;;;5035473;28;20021;-77
2021/01/23 08:43:20;;;;;;;2.30;0.30;;;1.50;99.90;;;;;;5019825;28;20034;-77
2021/01/23 08:45:46;;;;;;;0.38;0.30;;;1.60;99.90;;;;;;5036224;28;20033;-77
2021/01/23 08:48:12;;;;;;;0.35;0.35;;;1.60;99.90;;;;;;5035621;28;20109;-77
2021/01/23 08:50:38;;;;;;;10.82;0.40;;;1.60;99.90;;;;;;5033695;28;20486;-77
2021/01/23 08:53:03;;;;;;;0.77;0.30;;;1.70;99.90;;;;;;5035692;28;20053;-77
2021/01/23 08:55:29;;;;;;;0.63;0.40;;;1.70;99.90;;;;;;5005384;28;20044;-76
2021/01/23 08:57:55;;;;;;;1.73;0.50;;;1.80;99.90;;;;;;5027944;28;20049;-77
2021/01/23 09:00:20;;;;;;;0.52;0.30;;;1.80;99.90;;;;;;5026633;28;20021;-77
2021/01/23 09:02:46;;;;;;;0.63;0.38;;;1.80;99.90;;;;;;5047971;28;20060;-77
2021/01/23 09:05:12;;;;;;;0.30;0.30;;;1.80;99.90;;;;;;5037132;28;20493;-77
2021/01/23 09:07:39;;;;;;;0.45;0.30;;;1.90;99.90;;;;;;5003445;28;20067;-76
2021/01/23 09:10:10;;;;;;;0.47;0.30;;;1.90;99.90;;;;;;5004629;28;20060;-76
2021/01/23 09:12:36;;;;;;;2.55;0.95;;;1.90;99.90;;;;;;5019179;28;20065;-76
2021/01/23 09:15:04;;;;;;;0.20;0.20;;;1.90;99.90;;;;;;5022228;28;20028;-76
2021/01/23 09:17:29;;;;;;;3.60;0.50;;;1.90;99.90;;;;;;5004387;28;20026;-76
2021/01/23 09:19:55;;;;;;;0.75;0.20;;;1.90;99.90;;;;;;4986397;28;20033;-76
2021/01/23 09:22:21;;;;;;;0.20;0.20;;;1.90;99.90;;;;;;5003151;28;20038;-76
2021/01/23 09:24:46;;;;;;;0.13;0.13;;;2.00;99.90;;;;;;5005757;28;20117;-77
2021/01/23 09:27:12;;;;;;;0.28;0.20;;;1.90;99.90;;;;;;5017549;28;20079;-77
2021/01/23 09:29:39;;;;;;;0.40;0.30;;;1.90;99.90;;;;;;5019280;28;20521;-76
2021/01/23 09:32:06;;;;;;;0.35;0.22;;;1.90;99.90;;;;;;5020287;28;20030;-77
2021/01/23 09:34:35;;;;;;;2.55;0.28;;;1.90;99.90;;;;;;5006021;28;20176;-77
2021/01/23 09:37:03;;;;;;;0.20;0.10;;;2.00;99.90;;;;;;5013720;28;20437;-77
2021/01/23 09:39:30;;;;;;;0.68;0.40;;;2.00;99.90;;;;;;5018653;28;20553;-77
2021/01/23 09:42:00;;;;;;;1.75;0.98;;;2.00;99.90;;;;;;5008932;28;20477;-77
2021/01/23 09:44:26;;;;;;;0.20;0.20;;;2.10;99.90;;;;;;5023102;28;20036;-77
2021/01/23 09:46:52;;;;;;;0.20;0.20;;;2.10;99.90;;;;;;5022730;28;20029;-77
2021/01/23 09:49:17;;;;;;;0.10;0.10;;;2.10;99.90;;;;;;5006820;28;20396;-77
2021/01/23 09:51:43;;;;;;;0.25;0.20;;;2.20;99.90;;;;;;5000703;28;20033;-77
2021/01/23 09:54:09;;;;;;;0.25;0.25;;;2.20;99.90;;;;;;5019028;28;20080;-77
2021/01/23 09:56:35;;;;;;;0.20;0.20;;;2.30;99.90;;;;;;4999723;28;20056;-76
2021/01/23 09:59:00;;;;;;;0.30;0.15;;;2.30;99.90;;;;;;5011560;28;20516;-76
2021/01/23 10:01:26;;;;;;;0.25;0.20;;;2.30;99.90;;;;;;5017935;28;20441;-76
2021/01/23 10:03:52;;;;;;;0.15;0.15;;;2.40;99.90;;;;;;5001026;28;20072;-76
2021/01/23 10:06:18;;;;;;;0.40;0.10;;;2.40;99.90;;;;;;5007635;28;20038;-76
2021/01/23 10:08:43;;;;;;;0.10;0.10;;;2.50;99.90;;;;;;4999628;28;20029;-76
2021/01/23 10:11:09;;;;;;;0.30;0.20;;;2.50;99.90;;;;;;5022640;28;20489;-76
2021/01/23 10:13:35;;;;;;;0.10;0.10;;;2.60;99.90;;;;;;5011023;28;20172;-77
2021/01/23 10:16:02;;;;;;;0.10;0.10;;;2.60;99.90;;;;;;5006171;28;20030;-77
2021/01/23 10:18:28;;;;;;;0.30;0.30;;;2.60;99.90;;;;;;5017352;28;20108;-77
2021/01/23 10:20:54;;;;;;;2.10;0.13;;;2.70;99.90;;;;;;5003287;28;20156;-77
2021/01/23 10:23:20;;;;;;;0.10;0.10;;;2.80;99.90;;;;;;5011634;28;20033;-77
2021/01/23 10:25:46;;;;;;;0.50;0.10;;;2.80;99.90;;;;;;5012649;28;20034;-77
2021/01/23 10:28:12;;;;;;;0.17;0.10;;;2.80;99.90;;;;;;5021444;28;20031;-77
2021/01/23 10:30:37;;;;;;;0.52;0.28;;;2.90;99.90;;;;;;5004639;28;20076;-77
2021/01/23 10:33:03;;;;;;;0.10;0.10;;;3.00;99.90;;;;;;5017938;28;20037;-77
2021/01/23 10:35:29;;;;;;;0.73;0.20;;;3.00;99.90;;;;;;4990781;28;20030;-76
2021/01/23 10:37:55;;;;;;;0.10;0.10;;;3.00;99.90;;;;;;5008190;28;20458;-76
2021/01/23 10:40:20;;;;;;;0.13;0.10;;;3.10;99.90;;;;;;5014881;28;20525;-77
2021/01/23 10:42:46;;;;;;;0.30;0.28;;;3.10;99.90;;;;;;5018253;28;20065;-77
2021/01/23 10:45:12;;;;;;;0.30;0.20;;;3.10;99.90;;;;;;5023815;28;20095;-77
2021/01/23 10:47:38;;;;;;;0.25;0.25;;;3.10;99.90;;;;;;5001261;28;20053;-77
2021/01/23 10:50:05;;;;;;;1.27;0.22;;;3.10;99.90;;;;;;5019830;28;20061;-77
2021/01/23 10:52:31;;;;;;;0.45;0.35;;;3.10;99.90;;;;;;4989089;28;20038;-77
2021/01/23 10:54:57;;;;;;;1.10;0.68;;;3.10;99.90;;;;;;5000576;28;20029;-77
2021/01/23 10:57:22;;;;;;;3.40;0.60;;;3.00;99.90;;;;;;5010976;28;20482;-77
2021/01/23 10:59:48;;;;;;;0.45;0.25;;;3.00;99.90;;;;;;4979274;28;20520;-78
2021/01/23 11:02:14;;;;;;;0.60;0.40;;;3.00;99.90;;;;;;5010401;28;20083;-79
2021/01/23 11:04:40;;;;;;;0.32;0.30;;;3.00;99.90;;;;;;5021451;28;20169;-77
2021/01/23 11:07:06;;;;;;;0.30;0.30;;;3.10;99.90;;;;;;5028255;28;20033;-82
2021/01/23 11:09:34;;;;;;;0.57;0.50;;;3.10;99.90;;;;;;5003794;28;20080;-83
2021/01/23 11:12:00;;;;;;;0.77;0.47;;;3.10;99.90;;;;;;4983178;28;20037;-79
2021/01/23 11:14:26;;;;;;;0.70;0.32;;;3.20;99.90;;;;;;4974110;28;20029;-82
2021/01/23 11:16:52;;;;;;;1.50;0.40;;;3.30;99.90;;;;;;4991118;28;20104;-77
2021/01/23 11:19:17;;;;;;;0.63;0.43;;;3.30;99.90;;;;;;5001287;28;20251;-77
2021/01/23 11:21:43;;;;;;;0.60;0.60;;;3.40;99.90;;;;;;4997350;28;20518;-78
2021/01/23 11:24:09;;;;;;;1.05;0.65;;;3.30;99.90;;;;;;5003890;28;20037;-77
2021/01/23 11:26:35;;;;;;;0.95;0.47;;;3.30;99.90;;;;;;4997983;28;20025;-77
2021/01/23 11:29:01;;;;;;;1.33;0.65;;;3.20;99.90;;;;;;5007665;28;20040;-80
2021/01/23 11:31:27;;;;;;;0.98;0.77;;;3.20;99.90;;;;;;5021669;28;20727;-77
2021/01/23 11:33:53;;;;;;;1.05;0.80;;;3.10;99.90;;;;;;5019305;28;20029;-79
2021/01/23 11:36:19;;;;;;;1.17;0.90;;;3.10;99.90;;;;;;4997414;28;20029;-81
2021/01/23 11:38:45;;;;;;;0.88;0.80;;;3.10;99.90;;;;;;4976889;28;20029;-79
2021/01/23 11:41:11;;;;;;;1.27;0.98;;;3.10;99.90;;;;;;5007476;28;20033;-78
2021/01/23 11:43:37;;;;;;;1.77;0.90;;;3.10;99.90;;;;;;4977803;28;20428;-79
2021/01/23 11:46:03;;;;;;;1.00;0.85;;;3.10;99.90;;;;;;5003636;28;20036;-82
2021/01/23 11:48:33;;;;;;;1.23;1.08;;;3.00;99.90;;;;;;4985703;28;20049;-81
2021/01/23 11:51:01;;;;;;;2.47;1.77;;;3.00;99.90;;;;;;4988086;28;20457;-80
2021/01/23 11:53:30;;;;;;;2.25;1.33;;;3.00;99.90;;;;;;5001039;28;20148;-82
2021/01/23 11:55:55;;;;;;;2.67;2.17;;;3.00;99.90;;;;;;5002269;28;20026;-86
2021/01/23 11:58:21;;;;;;;2.80;1.92;;;3.00;99.90;;;;;;4976319;28;20471;-81
2021/01/23 12:00:47;;;;;;;3.50;2.45;;;3.00;99.90;;;;;;5010818;28;20037;-81
2021/01/23 12:03:12;;;;;;;3.50;2.70;;;3.10;99.90;;;;;;5007047;28;20402;-82
2021/01/23 12:05:38;;;;;;;4.15;2.60;;;3.10;99.90;;;;;;5032499;28;20029;-82
2021/01/23 12:08:05;;;;;;;4.47;2.60;;;3.10;99.90;;;;;;4993204;28;20025;-83
2021/01/23 12:10:31;;;;;;;6.00;3.83;;;3.10;99.90;;;;;;5018547;28;20033;-80
2021/01/23 12:12:59;;;;;;;4.97;3.50;;;3.20;99.90;;;;;;4983560;28;21392;-83
2021/01/23 12:15:25;;;;;;;7.15;3.67;;;3.10;99.90;;;;;;5002951;28;20013;-81
2021/01/23 12:17:52;;;;;;;5.30;3.67;;;3.10;99.90;;;;;;5020814;28;20041;-82
2021/01/23 12:20:21;;;;;;;7.97;3.85;;;3.10;99.90;;;;;;4992353;28;20116;-87
2021/01/23 12:22:47;;;;;;;9.30;4.15;;;3.20;99.90;;;;;;4999235;28;20536;-84
2021/01/23 12:25:14;;;;;;;7.32;3.92;;;3.20;99.90;;;;;;5000924;28;20033;-83
2021/01/23 12:27:39;;;;;;;7.47;4.30;;;3.30;99.90;;;;;;4980323;28;20067;-85
2021/01/23 12:30:11;;;;;;;7.18;4.35;;;3.40;99.90;;;;;;4981443;28;20053;-83
2021/01/23 12:32:38;;;;;;;11.32;4.18;;;3.40;99.90;;;;;;4985298;28;20463;-83
2021/01/23 12:35:09;;;;;;;7.85;4.47;;;3.40;99.90;;;;;;5001898;28;20087;-83
2021/01/23 12:37:36;;;;;;;7.30;4.22;;;3.40;99.90;;;;;;5019767;28;20109;-85
2021/01/23 12:40:11;;;;;;;8.25;4.72;;;3.30;99.90;;;;;;4976393;28;20050;-83
2021/01/23 12:42:38;;;;;;;6.25;4.63;;;3.20;99.90;;;;;;4995938;28;20033;-83
2021/01/23 12:45:05;;;;;;;8.45;4.57;;;3.10;99.90;;;;;;5013293;28;20029;-84
2021/01/23 12:47:31;;;;;;;6.80;4.15;;;3.00;99.90;;;;;;5022250;28;20037;-84
2021/01/23 12:49:57;;;;;;;5.97;4.28;;;2.90;99.90;;;;;;5038769;28;20034;-81
2021/01/23 12:52:23;;;;;;;6.65;4.32;;;2.90;99.90;;;;;;5007409;28;20301;-82
2021/01/23 12:54:48;;;;;;;8.02;5.10;;;2.90;99.90;;;;;;5013611;28;20047;-82
2021/01/23 12:57:14;;;;;;;9.95;4.38;;;2.90;99.90;;;;;;5014992;28;20033;-83
2021/01/23 12:59:40;;;;;;;8.57;5.35;;;3.00;99.90;;;;;;5018721;28;20040;-83
2021/01/23 13:02:05;;;;;;;6.88;4.60;;;2.90;99.90;;;;;;5016676;28;20029;-84
2021/01/23 13:04:31;;;;;;;10.10;5.47;;;2.90;99.90;;;;;;5039387;28;20041;-80